This is the latest recevied weather packets stored in our database for station/object M0XDC. If no packets are shown the sender has not sent any weather packets the latest 10 day(s).
| Time | Temp. | Humidity | Pressure | Rain* | Wind** | Luminosity | Snow |
|---|---|---|---|---|---|---|---|
| 1777940074 | 10° C | 86% | 1012.6 hPa | 0 mm | - | - | - |
| 1777938274 | 10.56° C | 87% | 1012.4 hPa | 0 mm | - | - | - |
| 1777936474 | 10.56° C | 90% | 1012.7 hPa | 0 mm | - | - | - |
| 1777934674 | 11.11° C | 89% | 1012.5 hPa | 0 mm | - | - | - |
| 1777932874 | 11.11° C | 88% | 1012.9 hPa | 0 mm | - | - | - |
| 1777931074 | 11.11° C | 88% | 1012.8 hPa | 0 mm | - | - | - |
| 1777929274 | 12.22° C | 86% | 1012.9 hPa | 0 mm | - | - | - |
| 1777927474 | 12.22° C | 84% | 1012.6 hPa | 0 mm | - | - | - |
| 1777925674 | 12.22° C | 86% | 1012.8 hPa | 0 mm | - | - | - |
| 1777923874 | 12.22° C | 85% | 1012.5 hPa | 0 mm | - | - | - |
| 1777922074 | 12.22° C | 85% | 1012.2 hPa | 0 mm | - | - | - |
| 1777920274 | 13.33° C | 82% | 1012.2 hPa | 0 mm | - | - | - |
| 1777918474 | 13.89° C | 76% | 1011.9 hPa | 0 mm | - | - | - |
| 1777916674 | 13.89° C | 76% | 1012.1 hPa | 0 mm | - | - | - |
| 1777914874 | 13.89° C | 76% | 1012.2 hPa | 0 mm | - | - | - |
| 1777913074 | 13.89° C | 76% | 1012.2 hPa | 0 mm | - | - | - |
| 1777911274 | 13.33° C | 77% | 1012.4 hPa | 0 mm | - | - | - |
| 1777909474 | 13.33° C | 78% | 1012.4 hPa | 0 mm | - | - | - |
| 1777907674 | 13.33° C | 77% | 1012.2 hPa | 0 mm | - | - | - |
| 1777905874 | 15° C | 74% | 1012.3 hPa | 0 mm | - | - | - |
| 1777904074 | 14.44° C | 74% | 1012.1 hPa | 0 mm | - | - | - |
| 1777902274 | 14.44° C | 75% | 1012.3 hPa | 0 mm | - | - | - |
| 1777900474 | 13.89° C | 76% | 1012.4 hPa | 0 mm | - | - | - |
| 1777898674 | 14.44° C | 76% | 1012.4 hPa | 0 mm | - | - | - |
| 1777896874 | 14.44° C | 76% | 1012.3 hPa | 0 mm | - | - | - |
* Rain latest hour (hover to see other rain measurements)
** Current wind speed in m/s (hover to see current wind gust speed)